ADDS METAR Data INFO
IDs: Format: Raw Decoded Include TAF

Data at: 0318 UTC 20 Jul 2018

KBJJ 200256Z AUTO 00000KT 10SM CLR 18/14 A3002 RMK AO2 SLP159 T01830144 53004
KBJJ 200156Z AUTO 12003KT 10SM CLR 21/14 A3002 RMK AO2 SLP158 T02060139
KBJJ 200056Z AUTO 14006KT 10SM CLR 22/14 A3001 RMK AO2 SLP156 T02220139
KBJJ 192356Z AUTO 15005KT 10SM CLR 26/13 A3001 RMK AO2 SLP155 T02560128 10278 20256 57011
KBJJ 192256Z AUTO 13007KT 10SM CLR 27/14 A3002 RMK AO2 SLP160 T02720139
KBJJ 192156Z AUTO 12008KT 10SM CLR 27/14 A3003 RMK AO2 SLP165 T02720139
KBJJ 192056Z AUTO 15006G14KT 10SM CLR 27/13 A3004 RMK AO2 SLP168 T02720128 56014
KBJJ 191956Z AUTO 14006KT 10SM CLR 28/14 A3005 RMK AO2 SLP170 T02780139
KBJJ 191856Z AUTO 11009KT 10SM CLR 27/14 A3006 RMK AO2 SLP175 T02720139
KBJJ 191756Z AUTO 14007KT 080V190 10SM CLR 27/12 A3008 RMK AO2 SLP182 T02670122 10267 20172 58014
KBJJ 191656Z AUTO VRB05KT 10SM CLR 26/12 A3010 RMK AO2 SLP188 T02560122
KBJJ 191556Z AUTO 22005KT 10SM CLR 24/12 A3011 RMK AO2 SLP192 T02390122
KBJJ 191456Z AUTO VRB06KT 10SM CLR 23/14 A3013 RMK AO2 SLP196 T02330144 50002
KBJJ 191356Z AUTO 13007KT 10SM CLR 22/13 A3013 RMK AO2 SLP197 T02170133
KBJJ 191256Z AUTO 09004KT 10SM CLR 19/13 A3013 RMK AO2 SLP198 T01940133
KBJJ 191156Z AUTO 08004KT 10SM CLR 17/13 A3012 RMK AO2 SLP194 T01720133 10172 20106 51007
KBJJ 191056Z AUTO 00000KT 10SM CLR 12/11 A3012 RMK AO2 SLP195 T01170111
KBJJ 190956Z AUTO 00000KT 10SM CLR 11/09 A3011 RMK AO2 SLP194 T01060094
KBJJ 190856Z AUTO 00000KT 10SM CLR 11/09 A3010 RMK AO2 SLP188 T01110094 56003
KBJJ 190756Z AUTO 00000KT 10SM CLR 11/10 A3010 RMK AO2 SLP188 T01110100
KBJJ 190656Z AUTO 00000KT 10SM CLR 12/11 A3010 RMK AO2 SLP189 T01170106
KBJJ 190556Z AUTO 00000KT 10SM CLR 13/12 A3011 RMK AO2 SLP190 T01330117 10233 20128 53003
KBJJ 190456Z AUTO 00000KT 10SM CLR 14/12 A3010 RMK AO2 SLP188 T01440122 402610133
KBJJ 190356Z AUTO 00000KT 10SM CLR 16/13 A3009 RMK AO2 SLP185 T01560128
KBJJ 190256Z AUTO 01004KT 10SM CLR 16/13 A3010 RMK AO2 SLP187 T01610128 53012
KBJJ 190156Z AUTO 36006KT 10SM CLR 19/13 A3008 RMK AO2 SLP182 T01890133
KBJJ 190056Z AUTO 35005KT 10SM CLR 20/14 A3007 RMK AO2 SLP177 T02000139
KBJJ 182356Z AUTO 32007KT 10SM CLR 23/12 A3006 RMK AO2 SLP174 T02330122 10261 20233 55003
KBJJ 182256Z AUTO 31006KT 10SM CLR 25/12 A3006 RMK AO2 SLP174 T02500117
KBJJ 182156Z AUTO 29004KT 10SM CLR 25/11 A3006 RMK AO2 SLP175 T02500111
KBJJ 182056Z AUTO 35003KT 10SM CLR 26/11 A3007 RMK AO2 SLP179 T02560106 58009
KBJJ 181956Z AUTO 10SM CLR 25/11 A3008 RMK AO2 SLP181 T02500106
KBJJ 181856Z AUTO 36007KT 10SM SCT050 25/11 A3010 RMK AO2 SLP186 T02500111
KBJJ 181756Z AUTO 35008KT 10SM CLR 25/11 A3010 RMK AO2 SLP187 T02500106 10256 20183 58006
KBJJ 181656Z AUTO 03008KT 10SM SCT050 25/12 A3011 RMK AO2 SLP190 T02500117
KBJJ 181556Z AUTO 01009KT 10SM BKN055 23/12 A3012 RMK AO2 SLP195 T02330122